| time (UTC) | temp F | wind direction | speed MPH | gust MPH | rain 1hr in | rain 24hr in | rain mn in | humidity % | barometer mb |
| 20260504025403 | 54 | 188 | 1.0 | 3.0 | 0.00 | 0.00 | 0.00 | 65 | 1017.5 |
| 20260504024503 | 54 | 201 | 0.0 | 3.0 | 0.00 | 0.00 | 0.00 | 65 | 1017.6 |
| 20260504023603 | 54 | 0 | 0.0 | 0.0 | 0.00 | 0.00 | 0.00 | 66 | 1017.6 |
| 20260504022703 | 54 | 0 | 0.0 | 0.0 | 0.00 | 0.00 | 0.00 | 65 | 1017.7 |
| 20260504021803 | 54 | 0 | 0.0 | 0.0 | 0.00 | 0.00 | 0.00 | 64 | 1017.6 |
| 20260504020903 | 54 | 0 | 0.0 | 0.0 | 0.00 | 0.00 | 0.00 | 64 | 1017.5 |
| 20260504020003 | 55 | 0 | 0.0 | 0.0 | 0.00 | 0.00 | 0.00 | 63 | 1017.6 |
| 20260504015403 | 55 | 0 | 0.0 | 0.0 | 0.00 | 0.00 | 0.00 | 63 | 1017.6 |
| 20260504014503 | 56 | 0 | 0.0 | 0.0 | 0.00 | 0.00 | 0.00 | 64 | 1017.4 |
| 20260504013603 | 56 | 0 | 0.0 | 0.0 | 0.00 | 0.00 | 0.00 | 60 | 1017.0 |
| 20260504012703 | 56 | 201 | 0.0 | 1.0 | 0.00 | 0.00 | 0.00 | 60 | 1016.7 |
| 20260504011803 | 57 | 0 | 0.0 | 0.0 | 0.00 | 0.00 | 0.00 | 58 | 1016.8 |
| 20260504010903 | 57 | 0 | 0.0 | 0.0 | 0.00 | 0.00 | 0.00 | 58 | 1016.8 |
| 20260504010003 | 58 | 0 | 0.0 | 0.0 | 0.00 | 0.00 | 0.00 | 57 | 1016.7 |
| 20260504005403 | 58 | 201 | 1.0 | 2.0 | 0.00 | 0.00 | 0.00 | 57 | 1016.6 |
| 20260504004503 | 59 | 201 | 2.0 | 2.0 | 0.00 | 0.00 | 0.00 | 57 | 1016.5 |
| 20260504003603 | 60 | 202 | 2.0 | 3.0 | 0.00 | 0.00 | 0.00 | 55 | 1016.5 |
| 20260504002703 | 61 | 206 | 2.0 | 5.0 | 0.00 | 0.00 | 0.00 | 53 | 1016.6 |
| 20260504001803 | 62 | 208 | 3.0 | 4.0 | 0.00 | 0.00 | 0.00 | 51 | 1016.7 |
| 20260504000903 | 62 | 208 | 3.0 | 6.0 | 0.00 | 0.00 | 0.00 | 50 | 1016.7 |
| 20260504000003 | 62 | 207 | 5.0 | 8.0 | 0.00 | 0.00 | 0.00 | 48 | 1016.7 |
| 20260503235403 | 63 | 204 | 5.0 | 8.0 | 0.00 | 0.00 | 0.00 | 48 | 1016.6 |
| 20260503234503 | 63 | 206 | 5.0 | 10.0 | 0.00 | 0.00 | 0.00 | 49 | 1016.7 |
| 20260503233603 | 63 | 201 | 6.0 | 9.0 | 0.00 | 0.00 | 0.00 | 49 | 1016.7 |
| 20260503232703 | 64 | 204 | 4.0 | 8.0 | 0.00 | 0.00 | 0.00 | 50 | 1016.9 |
| 20260503231803 | 64 | 204 | 5.0 | 8.0 | 0.00 | 0.00 | 0.00 | 48 | 1017.0 |
| 20260503230903 | 64 | 209 | 5.0 | 9.0 | 0.00 | 0.00 | 0.00 | 46 | 1017.1 |
| 20260503230003 | 65 | 217 | 5.0 | 12.0 | 0.00 | 0.00 | 0.00 | 46 | 1017.2 |
| 20260503225403 | 65 | 211 | 5.0 | 12.0 | 0.00 | 0.00 | 0.00 | 45 | 1017.5 |
| 20260503224503 | 65 | 209 | 5.0 | 10.0 | 0.00 | 0.00 | 0.00 | 47 | 1017.5 |
| 20260503223603 | 65 | 208 | 6.0 | 12.0 | 0.00 | 0.00 | 0.00 | 45 | 1017.7 |
| 20260503222703 | 65 | 204 | 6.0 | 10.0 | 0.00 | 0.00 | 0.00 | 44 | 1018.0 |
| 20260503221803 | 66 | 203 | 5.0 | 9.0 | 0.00 | 0.00 | 0.00 | 45 | 1018.0 |
| 20260503220903 | 66 | 208 | 5.0 | 12.0 | 0.00 | 0.00 | 0.00 | 47 | 1018.1 |
| 20260503220003 | 66 | 207 | 4.0 | 8.0 | 0.00 | 0.00 | 0.00 | 45 | 1018.2 |
| 20260503215403 | 66 | 213 | 4.0 | 8.0 | 0.00 | 0.00 | 0.00 | 43 | 1018.4 |
| 20260503214503 | 67 | 214 | 6.0 | 14.0 | 0.00 | 0.00 | 0.00 | 43 | 1018.6 |
| 20260503213603 | 68 | 211 | 7.0 | 14.0 | 0.00 | 0.00 | 0.00 | 42 | 1018.6 |
| 20260503212703 | 68 | 205 | 6.0 | 13.0 | 0.00 | 0.00 | 0.00 | 41 | 1018.7 |
| 20260503211803 | 69 | 211 | 6.0 | 17.0 | 0.00 | 0.00 | 0.00 | 40 | 1018.8 |
| 20260503210903 | 68 | 214 | 5.0 | 15.0 | 0.00 | 0.00 | 0.00 | 42 | 1019.0 |
| 20260503210003 | 68 | 226 | 6.0 | 16.0 | 0.00 | 0.00 | 0.00 | 43 | 1019.2 |
| 20260503205403 | 68 | 216 | 8.0 | 16.0 | 0.00 | 0.00 | 0.00 | 41 | 1019.3 |
| 20260503204503 | 69 | 217 | 8.0 | 15.0 | 0.00 | 0.00 | 0.00 | 41 | 1019.3 |
| 20260503203603 | 69 | 201 | 8.0 | 17.0 | 0.00 | 0.00 | 0.00 | 43 | 1019.4 |
| 20260503202703 | 69 | 209 | 6.0 | 14.0 | 0.00 | 0.00 | 0.00 | 42 | 1019.7 |
| 20260503201803 | 69 | 213 | 7.0 | 12.0 | 0.00 | 0.00 | 0.00 | 40 | 1020.0 |
| 20260503200903 | 69 | 214 | 6.0 | 16.0 | 0.00 | 0.00 | 0.00 | 39 | 1020.0 |
| 20260503200003 | 69 | 230 | 6.0 | 14.0 | 0.00 | 0.00 | 0.00 | 43 | 1020.2 |
| 20260503195403 | 68 | 226 | 5.0 | 14.0 | 0.00 | 0.00 | 0.00 | 44 | 1020.4 |
| 20260503194503 | 68 | 201 | 6.0 | 15.0 | 0.00 | 0.00 | 0.00 | 41 | 1020.7 |
| 20260503193603 | 68 | 207 | 8.0 | 16.0 | 0.00 | 0.00 | 0.00 | 41 | 1021.0 |
| 20260503192703 | 68 | 200 | 6.0 | 11.0 | 0.00 | 0.00 | 0.00 | 40 | 1021.0 |
| 20260503191803 | 68 | 211 | 5.0 | 12.0 | 0.00 | 0.00 | 0.00 | 39 | 1021.3 |
| 20260503190903 | 68 | 204 | 5.0 | 10.0 | 0.00 | 0.00 | 0.00 | 40 | 1021.4 |
| 20260503190004 | 68 | 213 | 6.0 | 11.0 | 0.00 | 0.00 | 0.00 | 39 | 1021.5 |
| 20260503185403 | 67 | 227 | 6.0 | 17.0 | 0.00 | 0.00 | 0.00 | 40 | 1021.8 |
| 20260503184503 | 66 | 221 | 5.0 | 17.0 | 0.00 | 0.00 | 0.00 | 40 | 1021.8 |
| 20260503183603 | 67 | 205 | 4.0 | 9.0 | 0.00 | 0.00 | 0.00 | 43 | 1021.8 |
| 20260503182703 | 66 | 223 | 4.0 | 9.0 | 0.00 | 0.00 | 0.00 | 42 | 1022.0 |
| 20260503181803 | 66 | 198 | 6.0 | 15.0 | 0.00 | 0.00 | 0.00 | 41 | 1022.0 |
| 20260503180903 | 66 | 234 | 5.0 | 14.0 | 0.00 | 0.00 | 0.00 | 40 | 1022.2 |
| 20260503180003 | 66 | 233 | 6.0 | 12.0 | 0.00 | 0.00 | 0.00 | 46 | 1022.2 |
| 20260503175403 | 66 | 214 | 5.0 | 11.0 | 0.00 | 0.00 | 0.00 | 42 | 1022.4 |
| 20260503174503 | 65 | 207 | 4.0 | 9.0 | 0.00 | 0.00 | 0.00 | 44 | 1022.5 |
| 20260503173603 | 65 | 215 | 4.0 | 10.0 | 0.00 | 0.00 | 0.00 | 40 | 1022.7 |
| 20260503172703 | 65 | 209 | 3.0 | 9.0 | 0.00 | 0.00 | 0.00 | 42 | 1022.9 |
| 20260503171803 | 64 | 188 | 2.0 | 9.0 | 0.00 | 0.00 | 0.00 | 46 | 1022.9 |
| 20260503170903 | 64 | 161 | 3.0 | 9.0 | 0.00 | 0.00 | 0.00 | 46 | 1023.1 |
| 20260503150903 | 61 | 211 | 4.0 | 9.0 | 0.00 | 0.00 | 0.00 | 49 | 1024.3 |
| 20260503130903 | 47 | 177 | 1.0 | 4.0 | 0.00 | 0.00 | 0.00 | 87 | 1024.1 |
| 20260503080903 | 37 | 0 | 0.0 | 0.0 | 0.00 | 0.00 | 0.00 | 93 | 1023.0 |
| 20260503072703 | 38 | 0 | 0.0 | 0.0 | 0.00 | 0.00 | 0.00 | 93 | 1022.7 |
| 20260503071803 | 38 | 0 | 0.0 | 0.0 | 0.00 | 0.00 | 0.00 | 93 | 1022.7 |
| 20260503070903 | 38 | 0 | 0.0 | 0.0 | 0.00 | 0.00 | 0.00 | 92 | 1022.7 |
| 20260503054503 | 40 | 0 | 0.0 | 0.0 | 0.00 | 0.00 | 0.00 | 88 | 1022.7 |
| 20260503053603 | 40 | 0 | 0.0 | 0.0 | 0.00 | 0.00 | 0.00 | 87 | 1022.7 |
| 20260503052703 | 41 | 0 | 0.0 | 0.0 | 0.00 | 0.00 | 0.00 | 87 | 1022.8 |
| 20260503051803 | 41 | 0 | 0.0 | 0.0 | 0.00 | 0.00 | 0.00 | 86 | 1022.8 |
| 20260503050903 | 42 | 0 | 0.0 | 0.0 | 0.00 | 0.00 | 0.00 | 84 | 1022.8 |
| 20260503050005 | 42 | 355 | 0.0 | 1.0 | 0.00 | 0.00 | 0.00 | 85 | 1022.7 |
| 20260503045403 | 42 | 355 | 0.0 | 1.0 | 0.00 | 0.00 | 0.00 | 87 | 1022.6 |
| 20260503044503 | 42 | 0 | 0.0 | 0.0 | 0.00 | 0.00 | 0.00 | 87 | 1022.6 |
| 20260503043603 | 42 | 0 | 0.0 | 0.0 | 0.00 | 0.00 | 0.00 | 87 | 1022.5 |
| 20260503042703 | 42 | 19 | 0.0 | 2.0 | 0.00 | 0.00 | 0.00 | 86 | 1022.5 |
| 20260503041803 | 43 | 12 | 0.0 | 2.0 | 0.00 | 0.00 | 0.00 | 85 | 1022.4 |
| 20260503040903 | 43 | 2 | 0.0 | 2.0 | 0.00 | 0.00 | 0.00 | 86 | 1022.4 |
| 20260503040003 | 42 | 0 | 0.0 | 0.0 | 0.00 | 0.00 | 0.00 | 85 | 1022.3 |
| 20260503035403 | 43 | 0 | 0.0 | 0.0 | 0.00 | 0.00 | 0.00 | 86 | 1022.3 |
| 20260503034503 | 43 | 0 | 0.0 | 0.0 | 0.00 | 0.00 | 0.00 | 86 | 1022.3 |
| 20260503033603 | 43 | 0 | 0.0 | 0.0 | 0.00 | 0.00 | 0.00 | 87 | 1022.2 |
| 20260503032703 | 43 | 0 | 0.0 | 0.0 | 0.00 | 0.00 | 0.00 | 86 | 1022.2 |
| 20260503031803 | 44 | 0 | 0.0 | 0.0 | 0.00 | 0.00 | 0.00 | 86 | 1022.2 |
| 20260503030903 | 44 | 0 | 0.0 | 0.0 | 0.00 | 0.00 | 0.00 | 83 | 1022.2 |
| 20260503030003 | 45 | 0 | 0.0 | 0.0 | 0.00 | 0.00 | 0.00 | 82 | 1022.2 |